Accueil
METAR-TAF:

METAR-TAF

Aéroports :

Akulivik, Québec, Canada

latitude: 60-49N, longitude: 078-09W, altitude: 20 m

Observation

Le bulletin a été fait il y a 8 heures et 11 minutes, à 19:00 UTC
Vent 13 kt de nord/nord-est
Température -10°C
Humidité 72%
Pression 1014 hPa
Visibilité: 24.1 km
Quelques nuages à une hauteur de 1000 ft

METAR: CYKO 071900Z 03013KT 15SM FEW010 M10/M14 A2995 RMK SC1 SC TR SN CVR TR LOOSE LAST/OBS NXT/OBS 08/1200Z SLP148

Heure: 23:11 (03:11 UTC)


TAF: absent

Observations et prévisions météorologiques de plus de 4000 aéroports (messages METAR et TAF).

Les stations disponibles sont représentées par des disques jaunes et rouges sur la carte.

Passer la souris dessus pour voir le nom de la station.

Cliquer dessus pour voir les observations et prévisions météorologiques.

Pour changer de carte: cliquez sur les boutons verts avec une croix noire pour zoomer, sur le bouton vert avec un tiret pour effectuer un zoom arrière, ou sur les flèches vertes pour les cartes adjacentes.


METAR-TAF: